createdAt,value
2018-11-20T00:01:28.670Z,4.23
2018-11-20T00:04:15.855Z,3.23
2018-11-20T00:07:04.814Z,3.13
2018-11-20T00:09:59.696Z,3.73
2018-11-20T00:12:48.760Z,4.47
2018-11-20T00:15:39.144Z,4.20
2018-11-20T00:18:31.468Z,3.67
2018-11-20T00:21:30.007Z,3.57
2018-11-20T00:24:17.807Z,3.60
2018-11-20T00:27:12.836Z,4.00
2018-11-20T00:30:06.608Z,3.93
2018-11-20T00:33:01.918Z,3.33
2018-11-20T00:35:45.959Z,3.80
2018-11-20T00:38:43.847Z,3.93
2018-11-20T00:41:31.530Z,4.03
2018-11-20T00:44:19.178Z,3.63
2018-11-20T00:47:08.104Z,3.93
2018-11-20T00:49:56.981Z,2.30
2018-11-20T00:52:54.694Z,3.67
2018-11-20T00:56:17.235Z,3.77
2018-11-20T00:59:08.813Z,3.80
2018-11-20T01:02:05.209Z,4.07
2018-11-20T01:04:46.928Z,4.80
2018-11-20T01:07:34.157Z,2.93
2018-11-20T01:10:41.292Z,4.27
2018-11-20T01:13:35.812Z,3.40
2018-11-20T01:16:30.266Z,4.43
2018-11-20T01:19:24.939Z,2.90
2018-11-20T01:22:12.291Z,4.93
2018-11-20T01:25:07.771Z,4.67
2018-11-20T01:27:55.196Z,4.43
2018-11-20T01:30:46.953Z,4.17
2018-11-20T01:33:34.149Z,4.77
2018-11-20T01:36:30.264Z,5.57
2018-11-20T01:39:17.575Z,4.83
2018-11-20T01:42:21.668Z,3.63
2018-11-20T01:45:09.384Z,4.80
2018-11-20T01:47:58.342Z,4.90
2018-11-20T01:50:46.115Z,4.90
2018-11-20T01:53:41.844Z,4.90
2018-11-20T01:56:37.349Z,4.43
2018-11-20T01:59:25.135Z,4.40
2018-11-20T02:02:20.011Z,4.80
2018-11-20T02:05:11.689Z,4.60
2018-11-20T02:08:00.322Z,4.90
2018-11-20T02:10:56.086Z,4.97
2018-11-20T02:14:26.657Z,5.37
2018-11-20T02:17:21.771Z,3.77
2018-11-20T02:20:23.977Z,5.43
2018-11-20T02:26:24.002Z,5.63
2018-11-20T02:29:30.026Z,5.50
2018-11-20T02:32:25.198Z,5.83
2018-11-20T02:35:41.002Z,5.00
2018-11-20T02:38:42.615Z,4.97
2018-11-20T02:45:40.744Z,4.03
2018-11-20T02:48:35.588Z,5.70
2018-11-20T02:51:36.154Z,5.20
2018-11-20T02:54:42.647Z,5.47
2018-11-20T02:57:36.567Z,5.37
2018-11-20T03:00:37.235Z,5.40
2018-11-20T03:03:25.601Z,5.23
2018-11-20T03:06:10.789Z,5.17
2018-11-20T03:09:09.444Z,6.00
2018-11-20T03:11:57.507Z,5.53
2018-11-20T03:14:53.781Z,6.50
2018-11-20T03:17:38.885Z,4.13
2018-11-20T03:20:15.367Z,5.73
2018-11-20T03:23:22.886Z,5.50
2018-11-20T03:26:21.533Z,5.60
2018-11-20T03:29:24.812Z,5.97
2018-11-20T03:32:31.640Z,5.40
2018-11-20T03:35:10.005Z,3.93
2018-11-20T03:38:00.819Z,5.90
2018-11-20T03:40:37.591Z,5.53
2018-11-20T03:43:16.413Z,5.63
2018-11-20T03:46:04.792Z,6.03
2018-11-20T03:48:55.478Z,6.07
2018-11-20T03:51:43.661Z,5.77
2018-11-20T03:54:49.980Z,5.97
2018-11-20T03:57:47.024Z,5.77
2018-11-20T04:00:30.666Z,5.87
2018-11-20T04:03:24.794Z,4.70
2018-11-20T04:06:08.245Z,5.07
2018-11-20T04:09:05.925Z,6.17
2018-11-20T04:11:53.135Z,6.07
2018-11-20T04:14:44.764Z,5.73
2018-11-20T04:17:44.454Z,6.27
2018-11-20T04:20:35.328Z,6.27
2018-11-20T04:23:21.957Z,6.23
2018-11-20T04:26:18.718Z,5.97
2018-11-20T04:29:16.219Z,6.27
2018-11-20T04:32:08.643Z,6.23
2018-11-20T04:34:50.660Z,5.43
2018-11-20T04:37:46.111Z,5.73
2018-11-20T04:40:37.398Z,6.33
2018-11-20T04:43:23.988Z,5.87
2018-11-20T04:46:12.257Z,6.60
2018-11-20T04:48:52.002Z,6.27
2018-11-20T04:51:38.685Z,6.80
2018-11-20T04:54:25.677Z,6.83
2018-11-20T04:57:22.777Z,6.33
2018-11-20T05:00:19.932Z,5.90
2018-11-20T05:03:11.156Z,6.57
2018-11-20T05:05:58.157Z,6.40
2018-11-20T05:08:47.523Z,5.63
2018-11-20T05:11:28.813Z,6.33
2018-11-20T05:14:17.187Z,6.03
2018-11-20T05:17:00.473Z,6.87
2018-11-20T05:19:49.154Z,5.67
2018-11-20T05:22:37.363Z,5.87
2018-11-20T05:25:28.372Z,6.57
2018-11-20T05:28:15.012Z,5.60
2018-11-20T05:31:03.418Z,5.13
2018-11-20T05:33:50.057Z,6.20
2018-11-20T05:36:37.401Z,6.63
2018-11-20T05:39:28.812Z,5.53
2018-11-20T05:42:22.498Z,4.93
2018-11-20T05:45:13.603Z,6.80
2018-11-20T05:48:16.483Z,3.50
2018-11-20T05:51:07.433Z,5.87
2018-11-20T05:53:54.212Z,6.00
2018-11-20T05:56:36.377Z,6.70
2018-11-20T05:59:23.175Z,5.50
2018-11-20T06:02:11.280Z,5.87
2018-11-20T06:04:52.413Z,5.87
2018-11-20T06:07:41.757Z,6.07
2018-11-20T06:10:43.042Z,6.03
2018-11-20T06:13:29.295Z,5.80
2018-11-20T06:16:26.272Z,6.10
2018-11-20T06:19:17.543Z,5.17
2018-11-20T06:22:08.621Z,5.80
2018-11-20T06:25:05.817Z,5.73
2018-11-20T06:27:52.350Z,4.33
2018-11-20T06:30:40.417Z,5.73
2018-11-20T06:33:34.244Z,4.80
2018-11-20T06:36:22.949Z,4.77
2018-11-20T06:39:12.722Z,6.07
2018-11-20T06:42:01.972Z,5.80
2018-11-20T06:44:52.979Z,6.27
2018-11-20T06:47:40.714Z,5.20
2018-11-20T06:50:37.022Z,5.83
2018-11-20T06:53:25.165Z,6.10
2018-11-20T06:56:11.911Z,3.23
2018-11-20T06:59:09.088Z,5.50
2018-11-20T07:02:05.986Z,6.53
2018-11-20T07:05:12.396Z,7.53
2018-11-20T07:08:05.039Z,6.43
2018-11-20T07:10:38.022Z,5.60
2018-11-20T07:13:40.004Z,7.40
2018-11-20T07:16:46.685Z,5.97
2018-11-20T07:19:39.510Z,6.73
2018-11-20T07:22:26.537Z,6.57
2018-11-20T07:25:13.229Z,6.70
2018-11-20T07:28:10.539Z,5.03
2018-11-20T07:31:04.780Z,7.10
2018-11-20T07:33:49.076Z,6.50
2018-11-20T07:36:45.565Z,6.73
2018-11-20T07:39:40.719Z,7.07
2018-11-20T07:46:08.728Z,6.70
2018-11-20T07:49:12.083Z,6.20
2018-11-20T07:58:22.494Z,6.60
2018-11-20T08:01:16.579Z,6.17
2018-11-20T08:04:14.807Z,6.07
2018-11-20T08:07:05.013Z,4.83
2018-11-20T08:09:42.850Z,6.60
2018-11-20T08:12:31.184Z,6.50
2018-11-20T08:15:28.679Z,6.73
2018-11-20T08:18:20.044Z,7.10
2018-11-20T08:21:06.767Z,6.87
2018-11-20T08:23:55.620Z,7.70
2018-11-20T08:26:49.804Z,6.57
2018-11-20T08:29:37.173Z,7.30
2018-11-20T08:32:40.335Z,7.00
2018-11-20T08:35:24.685Z,6.47
2018-11-20T08:38:14.535Z,6.87
2018-11-20T08:41:14.959Z,7.47
2018-11-20T08:44:17.663Z,7.67
2018-11-20T08:47:04.424Z,7.37
2018-11-20T08:50:01.762Z,7.70
2018-11-20T08:52:51.893Z,7.47
2018-11-20T08:55:42.450Z,7.93
2018-11-20T08:58:28.959Z,8.50
2018-11-20T09:01:29.381Z,8.23
2018-11-20T09:04:23.353Z,6.47
2018-11-20T09:07:10.107Z,7.87
2018-11-20T09:09:57.381Z,8.87
2018-11-20T09:12:53.417Z,9.48
2018-11-20T09:15:59.803Z,8.53
2018-11-20T09:18:47.982Z,7.83
2018-11-20T09:21:45.146Z,8.40
2018-11-20T09:24:35.733Z,8.67
2018-11-20T09:27:22.653Z,7.90
2018-11-20T09:30:09.766Z,8.17
2018-11-20T09:33:03.766Z,8.43
2018-11-20T09:35:54.591Z,8.27
2018-11-20T09:38:42.672Z,7.30
2018-11-20T09:41:31.389Z,8.30
2018-11-20T09:44:37.246Z,8.53
2018-11-20T09:47:40.544Z,7.00
2018-11-20T09:50:42.379Z,6.53
2018-11-20T09:53:29.603Z,3.93
2018-11-20T09:56:30.270Z,7.80
2018-11-20T09:59:18.305Z,6.33
2018-11-20T10:02:15.520Z,8.53
2018-11-20T10:05:05.774Z,7.67
2018-11-20T10:07:55.116Z,8.50
2018-11-20T10:11:01.412Z,7.07
2018-11-20T10:13:51.908Z,7.73
2018-11-20T10:16:41.515Z,8.70
2018-11-20T10:19:32.844Z,8.00
2018-11-20T10:22:32.904Z,8.40
2018-11-20T10:25:33.483Z,8.90
2018-11-20T10:28:33.579Z,6.30
2018-11-20T10:31:20.217Z,7.40
2018-11-20T10:34:08.475Z,7.93
2018-11-20T10:36:53.221Z,7.90
2018-11-20T10:39:49.064Z,6.53
2018-11-20T10:42:42.861Z,7.67
2018-11-20T10:45:30.879Z,6.47
2018-11-20T10:48:37.044Z,7.53
2018-11-20T10:51:28.802Z,8.57
2018-11-20T10:54:20.196Z,8.40
2018-11-20T10:57:07.180Z,6.50
2018-11-20T10:59:53.964Z,7.70
2018-11-20T11:02:52.236Z,6.83
2018-11-20T11:05:50.231Z,6.57
2018-11-20T11:08:36.674Z,7.00
2018-11-20T11:11:32.422Z,7.17
2018-11-20T11:14:22.194Z,6.07
2018-11-20T11:17:08.779Z,6.57
2018-11-20T11:20:08.909Z,6.83
2018-11-20T11:22:55.678Z,6.60
2018-11-20T11:25:46.249Z,4.50
2018-11-20T11:28:34.414Z,6.00
2018-11-20T11:35:00.611Z,6.20
2018-11-20T11:37:56.243Z,6.93
2018-11-20T11:40:43.089Z,7.30
2018-11-20T11:43:30.127Z,7.17
2018-11-20T11:46:16.904Z,5.97
2018-11-20T11:49:07.745Z,7.03
2018-11-20T11:51:56.741Z,5.93
2018-11-20T11:54:44.062Z,6.90
2018-11-20T11:57:41.418Z,6.70
2018-11-20T12:00:31.372Z,6.20
2018-11-20T12:03:33.080Z,7.07
2018-11-20T12:06:24.608Z,5.17
2018-11-20T12:09:14.439Z,6.80
2018-11-20T12:12:14.228Z,5.73
2018-11-20T12:15:16.980Z,5.73
2018-11-20T12:18:05.074Z,6.57
2018-11-20T12:20:53.108Z,6.57
2018-11-20T12:23:43.761Z,5.20
2018-11-20T12:26:37.971Z,6.23
2018-11-20T12:29:24.486Z,6.50
2018-11-20T12:32:22.204Z,5.67
2018-11-20T12:35:17.078Z,6.67
2018-11-20T12:37:56.554Z,6.03
2018-11-20T12:40:42.922Z,6.30
2018-11-20T12:43:37.994Z,5.03
2018-11-20T12:46:25.996Z,5.20
2018-11-20T12:49:32.211Z,5.63
2018-11-20T12:52:36.062Z,5.53
2018-11-20T12:55:24.069Z,6.43
2018-11-20T12:58:10.654Z,6.17
2018-11-20T13:01:01.680Z,5.90
2018-11-20T13:03:48.191Z,6.70
2018-11-20T13:06:42.541Z,6.87
2018-11-20T13:09:50.640Z,7.17
2018-11-20T13:12:37.387Z,7.03
2018-11-20T13:15:30.132Z,4.57
2018-11-20T13:18:17.719Z,7.47
2018-11-20T13:21:11.808Z,7.40
2018-11-20T13:24:13.606Z,7.50
2018-11-20T13:26:58.977Z,5.37
2018-11-20T13:29:59.394Z,7.80
2018-11-20T13:32:46.668Z,7.50
2018-11-20T13:35:50.187Z,7.70
2018-11-20T13:38:56.381Z,6.40
2018-11-20T13:42:07.677Z,4.93
2018-11-20T13:45:06.181Z,6.67
2018-11-20T13:48:03.367Z,7.30
2018-11-20T13:50:51.851Z,7.70
2018-11-20T13:53:33.497Z,7.33
2018-11-20T13:56:20.477Z,7.97
2018-11-20T13:59:08.663Z,7.40
2018-11-20T14:02:11.671Z,7.63
2018-11-20T14:04:58.581Z,8.20
2018-11-20T14:07:49.545Z,7.67
2018-11-20T14:10:46.698Z,7.50
2018-11-20T14:13:37.694Z,6.63
2018-11-20T14:16:26.559Z,5.93
2018-11-20T14:19:26.864Z,7.90
2018-11-20T14:22:13.728Z,8.00
2018-11-20T14:25:39.995Z,8.83
2018-11-20T14:28:22.237Z,9.57
2018-11-20T14:31:09.038Z,10.17
2018-11-20T14:33:55.729Z,5.57
2018-11-20T14:36:42.657Z,9.33
2018-11-20T14:39:31.461Z,8.77
2018-11-20T14:42:28.848Z,8.83
2018-11-20T14:45:17.193Z,8.93
2018-11-20T14:48:05.935Z,8.20
2018-11-20T14:50:55.732Z,8.70
2018-11-20T14:53:56.837Z,9.17
2018-11-20T14:56:38.660Z,9.43
2018-11-20T14:59:35.207Z,9.17
2018-11-20T15:02:30.436Z,9.97
2018-11-20T15:05:20.126Z,9.03
2018-11-20T15:08:12.727Z,9.27
2018-11-20T15:11:19.721Z,9.67
2018-11-20T15:14:17.012Z,7.93
2018-11-20T15:17:11.740Z,9.37
2018-11-20T15:19:58.403Z,10.43
2018-11-20T15:22:53.796Z,10.70
2018-11-20T15:25:47.726Z,9.67
2018-11-20T15:28:36.185Z,9.87
2018-11-20T15:31:23.310Z,9.13
2018-11-20T15:34:21.881Z,9.27
2018-11-20T15:37:10.560Z,9.73
2018-11-20T15:40:18.363Z,9.20
2018-11-20T15:43:05.888Z,9.67
2018-11-20T15:45:58.922Z,9.47
2018-11-20T15:49:06.558Z,10.13
2018-11-20T15:51:53.254Z,8.57
2018-11-20T15:54:41.545Z,10.33
2018-11-20T15:57:31.052Z,9.90
2018-11-20T16:00:14.872Z,10.70
2018-11-20T16:02:57.385Z,11.67
2018-11-20T16:05:44.666Z,10.07
2018-11-20T16:08:42.119Z,11.50
2018-11-20T16:11:29.123Z,11.63
2018-11-20T16:14:29.842Z,10.07
2018-11-20T16:17:33.301Z,11.03
2018-11-20T16:20:13.272Z,10.27
2018-11-20T16:23:01.328Z,10.30
2018-11-20T16:25:52.231Z,10.90
2018-11-20T16:28:39.283Z,10.30
2018-11-20T16:31:27.811Z,9.93
2018-11-20T16:34:14.579Z,9.57
2018-11-20T16:37:01.382Z,7.90
2018-11-20T16:39:49.502Z,10.77
2018-11-20T16:42:40.827Z,9.03
2018-11-20T16:45:44.739Z,9.33
2018-11-20T16:48:35.820Z,10.67
2018-11-20T16:51:24.402Z,10.90
2018-11-20T16:54:06.154Z,10.37
2018-11-20T16:57:09.613Z,9.47
2018-11-20T16:59:56.193Z,11.40
2018-11-20T17:02:42.697Z,11.27
2018-11-20T17:05:42.959Z,9.87
2018-11-20T17:08:49.695Z,10.93
2018-11-20T17:11:44.056Z,11.30
2018-11-20T17:14:41.085Z,10.73
2018-11-20T17:17:30.768Z,9.97
2018-11-20T17:20:17.511Z,12.17
2018-11-20T17:23:14.695Z,13.67
2018-11-20T17:26:23.594Z,10.80
2018-11-20T17:29:10.441Z,11.00
2018-11-20T17:31:58.733Z,10.73
2018-11-20T17:34:45.571Z,11.30
2018-11-20T17:37:50.238Z,10.90
2018-11-20T17:40:41.969Z,10.13
2018-11-20T17:43:28.703Z,9.93
2018-11-20T17:46:15.896Z,8.17
2018-11-20T17:49:23.153Z,9.77
2018-11-20T17:52:20.122Z,10.47
2018-11-20T17:55:11.671Z,10.93
2018-11-20T17:58:06.355Z,11.17
2018-11-20T18:01:01.925Z,11.93
2018-11-20T18:03:55.436Z,11.77
2018-11-20T18:06:32.059Z,10.13
2018-11-20T18:09:33.491Z,10.13
2018-11-20T18:12:26.030Z,10.07
2018-11-20T18:15:20.387Z,11.57
2018-11-20T18:18:11.099Z,11.80
2018-11-20T18:20:57.887Z,12.07
2018-11-20T18:23:48.961Z,11.07
2018-11-20T18:26:52.457Z,10.93
2018-11-20T18:29:40.715Z,12.13
2018-11-20T18:32:41.386Z,10.97
2018-11-20T18:35:38.529Z,13.30
2018-11-20T18:38:29.081Z,13.37
2018-11-20T18:41:28.123Z,12.83
2018-11-20T18:44:15.161Z,11.63
2018-11-20T18:47:04.954Z,12.33
2018-11-20T18:49:53.014Z,11.33
2018-11-20T18:52:59.208Z,12.93
2018-11-20T18:55:59.371Z,12.60
2018-11-20T18:58:54.008Z,12.97
2018-11-20T19:01:55.341Z,12.10
2018-11-20T19:04:44.415Z,13.57
2018-11-20T19:07:41.120Z,14.03
2018-11-20T19:10:28.391Z,12.50
2018-11-20T19:13:26.888Z,13.57
2018-11-20T19:16:13.596Z,12.83
2018-11-20T19:19:15.804Z,13.33
2018-11-20T19:22:04.729Z,12.97
2018-11-20T19:25:11.210Z,11.73
2018-11-20T19:27:58.825Z,13.13
2018-11-20T19:30:48.426Z,14.30
2018-11-20T19:33:39.724Z,13.60
2018-11-20T19:36:29.408Z,12.90
2018-11-20T19:39:20.578Z,13.30
2018-11-20T19:42:07.666Z,12.47
2018-11-20T19:44:58.429Z,13.63
2018-11-20T19:47:49.851Z,13.67
2018-11-20T19:50:47.217Z,12.80
2018-11-20T19:53:37.825Z,12.73
2018-11-20T19:56:25.667Z,13.03
2018-11-20T19:59:31.672Z,13.03
2018-11-20T20:02:18.991Z,14.23
2018-11-20T20:05:16.293Z,15.77
2018-11-20T20:08:19.392Z,12.87
2018-11-20T20:11:30.865Z,12.77
2018-11-20T20:14:25.395Z,11.40
2018-11-20T20:17:28.486Z,12.70
2018-11-20T20:20:49.935Z,13.17
2018-11-20T20:24:18.272Z,12.50
2018-11-20T20:27:05.817Z,12.43
2018-11-20T20:30:04.431Z,13.40
2018-11-20T20:33:02.101Z,12.33
2018-11-20T20:38:49.649Z,13.27
2018-11-20T20:45:04.886Z,14.03
2018-11-20T20:47:50.562Z,12.73
2018-11-20T20:50:48.811Z,13.07
2018-11-20T20:56:55.697Z,13.70
2018-11-20T20:59:49.240Z,13.93
2018-11-20T21:08:47.826Z,13.07
2018-11-20T21:15:07.060Z,13.33
2018-11-20T21:21:23.270Z,13.47
2018-11-20T21:24:11.176Z,13.30
2018-11-20T21:27:10.325Z,14.10
2018-11-20T21:30:17.272Z,13.87
2018-11-20T21:33:30.792Z,14.90
2018-11-20T21:36:25.651Z,14.47
2018-11-20T21:39:43.744Z,7.53
2018-11-20T21:42:38.664Z,14.33
2018-11-20T21:45:44.025Z,12.50
2018-11-20T21:52:21.010Z,14.33
2018-11-20T21:55:00.943Z,13.67
2018-11-20T21:58:06.338Z,14.60
2018-11-20T22:01:12.877Z,14.73
2018-11-20T22:04:09.278Z,14.53
2018-11-20T22:06:55.650Z,14.13
2018-11-20T22:09:42.634Z,14.27
2018-11-20T22:12:29.122Z,13.43
2018-11-20T22:15:22.911Z,14.17
2018-11-20T22:18:09.355Z,15.53
2018-11-20T22:26:53.919Z,15.17
2018-11-20T22:32:34.886Z,15.03
2018-11-20T22:39:14.404Z,14.87
2018-11-20T22:42:26.147Z,14.30
2018-11-20T22:45:33.612Z,15.17
2018-11-20T22:51:58.606Z,13.73
2018-11-20T23:02:35.714Z,16.23
2018-11-20T23:05:27.076Z,16.00
2018-11-20T23:07:57.299Z,15.13
2018-11-20T23:10:28.313Z,15.13
2018-11-20T23:12:57.644Z,13.03
2018-11-20T23:15:27.017Z,15.90
2018-11-20T23:17:58.630Z,15.87
2018-11-20T23:20:28.557Z,15.90
2018-11-20T23:22:57.801Z,16.67
2018-11-20T23:25:28.621Z,16.20
2018-11-20T23:27:58.072Z,15.50
2018-11-20T23:30:27.709Z,14.87
2018-11-20T23:32:58.726Z,15.23
2018-11-20T23:35:28.162Z,10.43
2018-11-20T23:37:59.743Z,15.83
2018-11-20T23:40:27.335Z,12.83
2018-11-20T23:42:57.545Z,16.33
2018-11-20T23:45:27.960Z,14.93
2018-11-20T23:47:58.109Z,16.00
2018-11-20T23:50:27.583Z,16.20
2018-11-20T23:52:57.350Z,16.10
2018-11-20T23:55:29.933Z,15.90
2018-11-20T23:58:00.320Z,15.37
